sensor_id;sensor_type;location;lat;lon;timestamp;P1;durP1;ratioP1;P2;durP2;ratioP2
54269;SDS011;40181;51.560;13.000;2022-11-20T00:01:41;17.45;;;12.63;;
54269;SDS011;40181;51.560;13.000;2022-11-20T00:04:10;16.20;;;13.32;;
54269;SDS011;40181;51.560;13.000;2022-11-20T00:06:42;15.80;;;11.85;;
54269;SDS011;40181;51.560;13.000;2022-11-20T00:09:11;14.43;;;11.45;;
54269;SDS011;40181;51.560;13.000;2022-11-20T00:11:40;17.60;;;14.43;;
54269;SDS011;40181;51.560;13.000;2022-11-20T00:14:10;13.30;;;11.95;;
54269;SDS011;40181;51.560;13.000;2022-11-20T00:16:39;17.10;;;13.48;;
54269;SDS011;40181;51.560;13.000;2022-11-20T00:19:08;16.17;;;13.05;;
54269;SDS011;40181;51.560;13.000;2022-11-20T00:21:38;19.88;;;12.05;;
54269;SDS011;40181;51.560;13.000;2022-11-20T00:24:10;18.70;;;13.68;;
54269;SDS011;40181;51.560;13.000;2022-11-20T00:26:40;14.05;;;12.27;;
54269;SDS011;40181;51.560;13.000;2022-11-20T00:29:09;14.57;;;12.95;;
54269;SDS011;40181;51.560;13.000;2022-11-20T00:31:38;15.05;;;11.68;;
54269;SDS011;40181;51.560;13.000;2022-11-20T00:34:08;15.32;;;13.63;;
54269;SDS011;40181;51.560;13.000;2022-11-20T00:36:38;13.82;;;10.75;;
54269;SDS011;40181;51.560;13.000;2022-11-20T00:39:09;14.65;;;12.35;;
54269;SDS011;40181;51.560;13.000;2022-11-20T00:41:39;13.55;;;10.50;;
54269;SDS011;40181;51.560;13.000;2022-11-20T00:44:08;15.45;;;11.55;;
54269;SDS011;40181;51.560;13.000;2022-11-20T00:46:37;16.80;;;12.35;;
54269;SDS011;40181;51.560;13.000;2022-11-20T00:49:06;16.75;;;12.70;;
54269;SDS011;40181;51.560;13.000;2022-11-20T00:51:35;12.63;;;10.55;;
54269;SDS011;40181;51.560;13.000;2022-11-20T00:54:07;12.48;;;9.98;;
54269;SDS011;40181;51.560;13.000;2022-11-20T00:56:36;12.00;;;9.70;;
54269;SDS011;40181;51.560;13.000;2022-11-20T00:59:06;13.40;;;11.30;;
54269;SDS011;40181;51.560;13.000;2022-11-20T01:01:36;19.75;;;15.02;;
54269;SDS011;40181;51.560;13.000;2022-11-20T01:04:06;13.15;;;11.82;;
54269;SDS011;40181;51.560;13.000;2022-11-20T01:06:36;13.45;;;11.55;;
54269;SDS011;40181;51.560;13.000;2022-11-20T01:09:11;13.50;;;11.10;;
54269;SDS011;40181;51.560;13.000;2022-11-20T01:11:42;12.63;;;11.10;;
54269;SDS011;40181;51.560;13.000;2022-11-20T01:14:13;16.42;;;11.65;;
54269;SDS011;40181;51.560;13.000;2022-11-20T01:16:47;22.85;;;12.93;;
54269;SDS011;40181;51.560;13.000;2022-11-20T01:19:18;18.42;;;14.00;;
54269;SDS011;40181;51.560;13.000;2022-11-20T01:21:50;23.20;;;15.55;;
54269;SDS011;40181;51.560;13.000;2022-11-20T01:24:23;17.33;;;12.25;;
54269;SDS011;40181;51.560;13.000;2022-11-20T01:26:52;17.88;;;11.68;;
54269;SDS011;40181;51.560;13.000;2022-11-20T01:29:22;15.82;;;12.88;;
54269;SDS011;40181;51.560;13.000;2022-11-20T01:31:52;17.77;;;12.73;;
54269;SDS011;40181;51.560;13.000;2022-11-20T01:34:24;14.95;;;11.82;;
54269;SDS011;40181;51.560;13.000;2022-11-20T01:36:54;15.68;;;13.35;;
54269;SDS011;40181;51.560;13.000;2022-11-20T01:39:26;15.35;;;11.75;;
54269;SDS011;40181;51.560;13.000;2022-11-20T01:41:55;18.00;;;12.63;;
54269;SDS011;40181;51.560;13.000;2022-11-20T01:44:45;12.82;;;10.95;;
54269;SDS011;40181;51.560;13.000;2022-11-20T01:47:27;16.77;;;12.60;;
54269;SDS011;40181;51.560;13.000;2022-11-20T01:50:03;17.58;;;13.50;;
54269;SDS011;40181;51.560;13.000;2022-11-20T01:52:40;24.50;;;14.07;;
54269;SDS011;40181;51.560;13.000;2022-11-20T01:55:19;15.95;;;12.15;;
54269;SDS011;40181;51.560;13.000;2022-11-20T01:57:51;18.40;;;13.15;;
54269;SDS011;40181;51.560;13.000;2022-11-20T02:00:21;19.83;;;13.37;;
54269;SDS011;40181;51.560;13.000;2022-11-20T02:02:51;18.63;;;13.23;;
54269;SDS011;40181;51.560;13.000;2022-11-20T02:05:24;12.75;;;11.45;;
54269;SDS011;40181;51.560;13.000;2022-11-20T02:07:59;15.60;;;12.75;;
54269;SDS011;40181;51.560;13.000;2022-11-20T02:10:31;15.53;;;12.77;;
54269;SDS011;40181;51.560;13.000;2022-11-20T02:13:01;17.60;;;15.05;;
54269;SDS011;40181;51.560;13.000;2022-11-20T02:15:44;23.15;;;16.92;;
54269;SDS011;40181;51.560;13.000;2022-11-20T02:18:14;13.45;;;11.80;;
54269;SDS011;40181;51.560;13.000;2022-11-20T02:20:47;20.67;;;14.90;;
54269;SDS011;40181;51.560;13.000;2022-11-20T02:23:21;17.75;;;14.30;;
54269;SDS011;40181;51.560;13.000;2022-11-20T02:25:58;16.08;;;11.80;;
54269;SDS011;40181;51.560;13.000;2022-11-20T02:28:31;17.10;;;14.60;;
54269;SDS011;40181;51.560;13.000;2022-11-20T02:31:01;13.50;;;11.65;;
54269;SDS011;40181;51.560;13.000;2022-11-20T02:33:30;18.15;;;13.05;;
54269;SDS011;40181;51.560;13.000;2022-11-20T02:35:59;19.15;;;13.85;;
54269;SDS011;40181;51.560;13.000;2022-11-20T02:38:29;17.58;;;14.65;;
54269;SDS011;40181;51.560;13.000;2022-11-20T02:41:00;24.33;;;16.60;;
54269;SDS011;40181;51.560;13.000;2022-11-20T02:43:30;17.73;;;15.48;;
54269;SDS011;40181;51.560;13.000;2022-11-20T02:45:59;19.90;;;16.60;;
54269;SDS011;40181;51.560;13.000;2022-11-20T02:48:28;20.38;;;17.00;;
54269;SDS011;40181;51.560;13.000;2022-11-20T02:50:57;15.90;;;12.93;;
54269;SDS011;40181;51.560;13.000;2022-11-20T02:53:26;16.95;;;13.18;;
54269;SDS011;40181;51.560;13.000;2022-11-20T02:55:55;25.63;;;18.73;;
54269;SDS011;40181;51.560;13.000;2022-11-20T02:58:27;14.18;;;12.80;;
54269;SDS011;40181;51.560;13.000;2022-11-20T03:00:57;17.80;;;14.63;;
54269;SDS011;40181;51.560;13.000;2022-11-20T03:03:26;20.30;;;13.63;;
54269;SDS011;40181;51.560;13.000;2022-11-20T03:05:55;17.73;;;14.32;;
54269;SDS011;40181;51.560;13.000;2022-11-20T03:08:27;13.40;;;11.88;;
54269;SDS011;40181;51.560;13.000;2022-11-20T03:10:56;15.40;;;12.50;;
54269;SDS011;40181;51.560;13.000;2022-11-20T03:13:31;15.40;;;13.40;;
54269;SDS011;40181;51.560;13.000;2022-11-20T03:16:05;15.00;;;13.20;;
54269;SDS011;40181;51.560;13.000;2022-11-20T03:18:36;16.88;;;13.77;;
54269;SDS011;40181;51.560;13.000;2022-11-20T03:21:06;13.57;;;12.07;;
54269;SDS011;40181;51.560;13.000;2022-11-20T03:23:37;17.20;;;12.80;;
54269;SDS011;40181;51.560;13.000;2022-11-20T03:26:08;14.45;;;12.98;;
54269;SDS011;40181;51.560;13.000;2022-11-20T03:28:45;17.95;;;13.82;;
54269;SDS011;40181;51.560;13.000;2022-11-20T03:31:16;18.23;;;14.15;;
54269;SDS011;40181;51.560;13.000;2022-11-20T03:33:48;19.38;;;14.30;;
54269;SDS011;40181;51.560;13.000;2022-11-20T03:36:18;21.40;;;15.90;;
54269;SDS011;40181;51.560;13.000;2022-11-20T03:38:49;24.48;;;17.63;;
54269;SDS011;40181;51.560;13.000;2022-11-20T03:41:19;18.27;;;14.70;;
54269;SDS011;40181;51.560;13.000;2022-11-20T03:43:53;17.27;;;15.45;;
54269;SDS011;40181;51.560;13.000;2022-11-20T03:46:25;19.80;;;14.95;;
54269;SDS011;40181;51.560;13.000;2022-11-20T03:48:55;16.10;;;13.90;;
54269;SDS011;40181;51.560;13.000;2022-11-20T03:51:25;19.73;;;15.80;;
54269;SDS011;40181;51.560;13.000;2022-11-20T03:53:57;17.90;;;14.60;;
54269;SDS011;40181;51.560;13.000;2022-11-20T03:56:29;21.13;;;15.90;;
54269;SDS011;40181;51.560;13.000;2022-11-20T03:59:02;18.10;;;14.05;;
54269;SDS011;40181;51.560;13.000;2022-11-20T04:01:33;18.75;;;15.18;;
54269;SDS011;40181;51.560;13.000;2022-11-20T04:04:04;18.17;;;14.80;;
54269;SDS011;40181;51.560;13.000;2022-11-20T04:06:34;18.10;;;15.38;;
54269;SDS011;40181;51.560;13.000;2022-11-20T04:09:05;19.75;;;15.50;;
54269;SDS011;40181;51.560;13.000;2022-11-20T04:11:35;16.77;;;14.57;;
54269;SDS011;40181;51.560;13.000;2022-11-20T04:14:14;16.88;;;14.25;;
54269;SDS011;40181;51.560;13.000;2022-11-20T04:16:44;18.75;;;16.10;;
54269;SDS011;40181;51.560;13.000;2022-11-20T04:19:14;22.50;;;16.08;;
54269;SDS011;40181;51.560;13.000;2022-11-20T04:21:44;21.40;;;16.45;;
54269;SDS011;40181;51.560;13.000;2022-11-20T04:24:14;31.25;;;21.02;;
54269;SDS011;40181;51.560;13.000;2022-11-20T04:26:43;29.35;;;18.10;;
54269;SDS011;40181;51.560;13.000;2022-11-20T04:29:15;23.30;;;17.75;;
54269;SDS011;40181;51.560;13.000;2022-11-20T04:31:44;24.17;;;17.70;;
54269;SDS011;40181;51.560;13.000;2022-11-20T04:34:13;21.90;;;17.92;;
54269;SDS011;40181;51.560;13.000;2022-11-20T04:36:42;21.45;;;17.42;;
54269;SDS011;40181;51.560;13.000;2022-11-20T04:39:12;21.98;;;17.30;;
54269;SDS011;40181;51.560;13.000;2022-11-20T04:41:42;20.55;;;16.08;;
54269;SDS011;40181;51.560;13.000;2022-11-20T04:44:14;23.45;;;18.05;;
54269;SDS011;40181;51.560;13.000;2022-11-20T04:46:44;20.63;;;15.65;;
54269;SDS011;40181;51.560;13.000;2022-11-20T04:49:14;21.35;;;17.67;;
54269;SDS011;40181;51.560;13.000;2022-11-20T04:51:43;25.63;;;18.90;;
54269;SDS011;40181;51.560;13.000;2022-11-20T04:54:12;19.60;;;15.20;;
54269;SDS011;40181;51.560;13.000;2022-11-20T04:56:41;19.15;;;15.73;;
54269;SDS011;40181;51.560;13.000;2022-11-20T04:59:11;19.90;;;15.80;;
54269;SDS011;40181;51.560;13.000;2022-11-20T05:01:43;22.40;;;17.52;;
54269;SDS011;40181;51.560;13.000;2022-11-20T05:04:12;17.67;;;15.75;;
54269;SDS011;40181;51.560;13.000;2022-11-20T05:06:41;26.25;;;18.05;;
54269;SDS011;40181;51.560;13.000;2022-11-20T05:09:10;20.42;;;16.88;;
54269;SDS011;40181;51.560;13.000;2022-11-20T05:11:39;23.52;;;17.13;;
54269;SDS011;40181;51.560;13.000;2022-11-20T05:14:09;21.52;;;17.15;;
54269;SDS011;40181;51.560;13.000;2022-11-20T05:16:41;24.83;;;18.40;;
54269;SDS011;40181;51.560;13.000;2022-11-20T05:19:10;26.17;;;19.50;;
54269;SDS011;40181;51.560;13.000;2022-11-20T05:21:39;24.67;;;19.50;;
54269;SDS011;40181;51.560;13.000;2022-11-20T05:24:08;24.23;;;18.08;;
54269;SDS011;40181;51.560;13.000;2022-11-20T05:26:39;19.08;;;16.35;;
54269;SDS011;40181;51.560;13.000;2022-11-20T05:29:09;26.40;;;18.27;;
54269;SDS011;40181;51.560;13.000;2022-11-20T05:31:42;18.90;;;15.98;;
54269;SDS011;40181;51.560;13.000;2022-11-20T05:34:11;20.17;;;17.08;;
54269;SDS011;40181;51.560;13.000;2022-11-20T05:36:40;17.30;;;15.48;;
54269;SDS011;40181;51.560;13.000;2022-11-20T05:39:09;22.73;;;17.33;;
54269;SDS011;40181;51.560;13.000;2022-11-20T05:41:39;21.17;;;15.90;;
54269;SDS011;40181;51.560;13.000;2022-11-20T05:44:09;21.45;;;18.65;;
54269;SDS011;40181;51.560;13.000;2022-11-20T05:46:42;28.60;;;21.27;;
54269;SDS011;40181;51.560;13.000;2022-11-20T05:49:11;27.35;;;21.48;;
54269;SDS011;40181;51.560;13.000;2022-11-20T05:51:40;22.60;;;15.73;;
54269;SDS011;40181;51.560;13.000;2022-11-20T05:54:09;24.77;;;19.10;;
54269;SDS011;40181;51.560;13.000;2022-11-20T05:56:38;21.60;;;17.55;;
54269;SDS011;40181;51.560;13.000;2022-11-20T05:59:09;18.80;;;15.98;;
54269;SDS011;40181;51.560;13.000;2022-11-20T06:01:38;20.17;;;15.68;;
54269;SDS011;40181;51.560;13.000;2022-11-20T06:04:10;19.70;;;15.60;;
54269;SDS011;40181;51.560;13.000;2022-11-20T06:06:39;23.85;;;15.70;;
54269;SDS011;40181;51.560;13.000;2022-11-20T06:09:08;19.70;;;14.05;;
54269;SDS011;40181;51.560;13.000;2022-11-20T06:11:37;16.42;;;12.85;;
54269;SDS011;40181;51.560;13.000;2022-11-20T06:14:07;17.15;;;14.00;;
54269;SDS011;40181;51.560;13.000;2022-11-20T06:16:36;17.48;;;14.52;;
54269;SDS011;40181;51.560;13.000;2022-11-20T06:19:08;15.18;;;13.27;;
54269;SDS011;40181;51.560;13.000;2022-11-20T06:21:37;15.50;;;13.48;;
54269;SDS011;40181;51.560;13.000;2022-11-20T06:24:06;21.88;;;16.48;;
54269;SDS011;40181;51.560;13.000;2022-11-20T06:26:37;21.17;;;15.70;;
54269;SDS011;40181;51.560;13.000;2022-11-20T06:29:06;17.38;;;15.43;;
54269;SDS011;40181;51.560;13.000;2022-11-20T06:31:35;17.10;;;14.73;;
54269;SDS011;40181;51.560;13.000;2022-11-20T06:34:11;17.85;;;14.43;;
54269;SDS011;40181;51.560;13.000;2022-11-20T06:36:40;16.08;;;13.70;;
54269;SDS011;40181;51.560;13.000;2022-11-20T06:39:09;13.90;;;12.20;;
54269;SDS011;40181;51.560;13.000;2022-11-20T06:41:39;16.60;;;13.27;;
54269;SDS011;40181;51.560;13.000;2022-11-20T06:44:08;17.52;;;14.35;;
54269;SDS011;40181;51.560;13.000;2022-11-20T06:46:37;19.00;;;14.52;;
54269;SDS011;40181;51.560;13.000;2022-11-20T06:49:06;19.95;;;14.52;;
54269;SDS011;40181;51.560;13.000;2022-11-20T06:51:38;14.75;;;12.90;;
54269;SDS011;40181;51.560;13.000;2022-11-20T06:54:07;19.50;;;15.00;;
54269;SDS011;40181;51.560;13.000;2022-11-20T06:56:36;15.57;;;11.48;;
54269;SDS011;40181;51.560;13.000;2022-11-20T06:59:06;18.52;;;14.15;;
54269;SDS011;40181;51.560;13.000;2022-11-20T07:01:36;16.77;;;14.45;;
54269;SDS011;40181;51.560;13.000;2022-11-20T07:04:05;20.30;;;14.52;;
54269;SDS011;40181;51.560;13.000;2022-11-20T07:06:37;18.75;;;15.07;;
54269;SDS011;40181;51.560;13.000;2022-11-20T07:09:06;16.13;;;12.93;;
54269;SDS011;40181;51.560;13.000;2022-11-20T07:11:35;15.60;;;10.55;;
54269;SDS011;40181;51.560;13.000;2022-11-20T07:14:04;17.27;;;11.88;;
54269;SDS011;40181;51.560;13.000;2022-11-20T07:16:34;15.85;;;12.45;;
54269;SDS011;40181;51.560;13.000;2022-11-20T07:19:03;18.27;;;12.55;;
54269;SDS011;40181;51.560;13.000;2022-11-20T07:21:32;18.45;;;13.43;;
54269;SDS011;40181;51.560;13.000;2022-11-20T07:24:04;19.13;;;12.73;;
54269;SDS011;40181;51.560;13.000;2022-11-20T07:26:33;19.42;;;14.93;;
54269;SDS011;40181;51.560;13.000;2022-11-20T07:29:03;18.92;;;14.93;;
54269;SDS011;40181;51.560;13.000;2022-11-20T07:31:32;21.92;;;14.20;;
54269;SDS011;40181;51.560;13.000;2022-11-20T07:34:01;16.50;;;13.70;;
54269;SDS011;40181;51.560;13.000;2022-11-20T07:36:30;19.13;;;14.68;;
54269;SDS011;40181;51.560;13.000;2022-11-20T07:39:00;14.40;;;12.85;;
54269;SDS011;40181;51.560;13.000;2022-11-20T07:41:32;16.88;;;12.98;;
54269;SDS011;40181;51.560;13.000;2022-11-20T07:44:01;20.98;;;14.23;;
54269;SDS011;40181;51.560;13.000;2022-11-20T07:46:30;13.07;;;10.63;;
54269;SDS011;40181;51.560;13.000;2022-11-20T07:48:59;15.13;;;12.57;;
54269;SDS011;40181;51.560;13.000;2022-11-20T07:51:29;17.30;;;14.10;;
54269;SDS011;40181;51.560;13.000;2022-11-20T07:53:58;16.40;;;11.65;;
54269;SDS011;40181;51.560;13.000;2022-11-20T07:56:30;16.55;;;14.23;;
54269;SDS011;40181;51.560;13.000;2022-11-20T07:58:59;17.35;;;12.80;;
54269;SDS011;40181;51.560;13.000;2022-11-20T08:01:28;17.80;;;13.27;;
54269;SDS011;40181;51.560;13.000;2022-11-20T08:03:58;18.63;;;15.02;;
54269;SDS011;40181;51.560;13.000;2022-11-20T08:06:27;13.85;;;12.30;;
54269;SDS011;40181;51.560;13.000;2022-11-20T08:08:56;16.48;;;12.75;;
54269;SDS011;40181;51.560;13.000;2022-11-20T08:11:25;13.93;;;11.65;;
54269;SDS011;40181;51.560;13.000;2022-11-20T08:14:10;20.75;;;15.57;;
54269;SDS011;40181;51.560;13.000;2022-11-20T08:16:42;21.52;;;15.25;;
54269;SDS011;40181;51.560;13.000;2022-11-20T08:19:14;22.83;;;17.45;;
54269;SDS011;40181;51.560;13.000;2022-11-20T08:21:45;26.38;;;16.67;;
54269;SDS011;40181;51.560;13.000;2022-11-20T08:24:17;22.00;;;18.17;;
54269;SDS011;40181;51.560;13.000;2022-11-20T08:26:47;17.90;;;13.38;;
54269;SDS011;40181;51.560;13.000;2022-11-20T08:29:18;13.15;;;11.60;;
54269;SDS011;40181;51.560;13.000;2022-11-20T08:31:47;22.33;;;16.17;;
54269;SDS011;40181;51.560;13.000;2022-11-20T08:34:17;22.65;;;16.17;;
54269;SDS011;40181;51.560;13.000;2022-11-20T08:36:46;17.45;;;13.35;;
54269;SDS011;40181;51.560;13.000;2022-11-20T08:39:15;14.82;;;12.15;;
54269;SDS011;40181;51.560;13.000;2022-11-20T08:41:45;12.57;;;10.70;;
54269;SDS011;40181;51.560;13.000;2022-11-20T08:44:14;19.73;;;14.65;;
54269;SDS011;40181;51.560;13.000;2022-11-20T08:46:46;22.70;;;17.30;;
54269;SDS011;40181;51.560;13.000;2022-11-20T08:49:15;18.70;;;15.35;;
54269;SDS011;40181;51.560;13.000;2022-11-20T08:51:44;17.10;;;13.88;;
54269;SDS011;40181;51.560;13.000;2022-11-20T08:54:16;20.70;;;16.95;;
54269;SDS011;40181;51.560;13.000;2022-11-20T08:56:47;17.00;;;14.70;;
54269;SDS011;40181;51.560;13.000;2022-11-20T08:59:17;20.38;;;16.83;;
54269;SDS011;40181;51.560;13.000;2022-11-20T09:01:49;19.70;;;15.18;;
54269;SDS011;40181;51.560;13.000;2022-11-20T09:04:19;19.27;;;13.23;;
54269;SDS011;40181;51.560;13.000;2022-11-20T09:06:48;19.13;;;15.48;;
54269;SDS011;40181;51.560;13.000;2022-11-20T09:09:17;17.20;;;14.20;;
54269;SDS011;40181;51.560;13.000;2022-11-20T09:11:47;18.40;;;14.60;;
54269;SDS011;40181;51.560;13.000;2022-11-20T09:14:17;22.60;;;17.38;;
54269;SDS011;40181;51.560;13.000;2022-11-20T09:16:52;21.73;;;14.75;;
54269;SDS011;40181;51.560;13.000;2022-11-20T09:19:21;12.10;;;10.82;;
54269;SDS011;40181;51.560;13.000;2022-11-20T09:21:51;18.40;;;14.05;;
54269;SDS011;40181;51.560;13.000;2022-11-20T09:24:25;18.75;;;13.82;;
54269;SDS011;40181;51.560;13.000;2022-11-20T09:26:54;16.98;;;13.48;;
54269;SDS011;40181;51.560;13.000;2022-11-20T09:29:28;25.50;;;15.25;;
54269;SDS011;40181;51.560;13.000;2022-11-20T09:32:00;24.88;;;15.93;;
54269;SDS011;40181;51.560;13.000;2022-11-20T09:34:29;15.98;;;12.13;;
54269;SDS011;40181;51.560;13.000;2022-11-20T09:36:59;20.17;;;16.33;;
54269;SDS011;40181;51.560;13.000;2022-11-20T09:39:28;22.30;;;14.75;;
54269;SDS011;40181;51.560;13.000;2022-11-20T09:42:05;25.55;;;17.83;;
54269;SDS011;40181;51.560;13.000;2022-11-20T09:45:06;21.40;;;15.45;;
54269;SDS011;40181;51.560;13.000;2022-11-20T09:48:03;16.77;;;13.52;;
54269;SDS011;40181;51.560;13.000;2022-11-20T09:50:47;20.77;;;15.43;;
54269;SDS011;40181;51.560;13.000;2022-11-20T09:53:24;15.43;;;13.13;;
54269;SDS011;40181;51.560;13.000;2022-11-20T09:56:07;20.05;;;14.32;;
54269;SDS011;40181;51.560;13.000;2022-11-20T09:58:40;14.27;;;12.32;;
54269;SDS011;40181;51.560;13.000;2022-11-20T10:01:12;19.70;;;14.52;;
54269;SDS011;40181;51.560;13.000;2022-11-20T10:03:49;23.83;;;16.85;;
54269;SDS011;40181;51.560;13.000;2022-11-20T10:06:26;20.13;;;13.90;;
54269;SDS011;40181;51.560;13.000;2022-11-20T10:09:01;20.38;;;15.70;;
54269;SDS011;40181;51.560;13.000;2022-11-20T10:11:48;15.40;;;12.85;;
54269;SDS011;40181;51.560;13.000;2022-11-20T10:14:31;23.83;;;14.35;;
54269;SDS011;40181;51.560;13.000;2022-11-20T10:17:13;21.65;;;15.05;;
54269;SDS011;40181;51.560;13.000;2022-11-20T10:20:07;25.10;;;16.77;;
54269;SDS011;40181;51.560;13.000;2022-11-20T10:22:49;18.08;;;13.88;;
54269;SDS011;40181;51.560;13.000;2022-11-20T10:25:46;25.95;;;18.33;;
54269;SDS011;40181;51.560;13.000;2022-11-20T10:28:25;24.48;;;16.20;;
54269;SDS011;40181;51.560;13.000;2022-11-20T10:31:08;20.75;;;17.02;;
54269;SDS011;40181;51.560;13.000;2022-11-20T10:33:51;18.83;;;13.27;;
54269;SDS011;40181;51.560;13.000;2022-11-20T10:36:27;24.20;;;19.27;;
54269;SDS011;40181;51.560;13.000;2022-11-20T10:39:03;21.85;;;16.27;;
54269;SDS011;40181;51.560;13.000;2022-11-20T10:41:42;21.55;;;16.10;;
54269;SDS011;40181;51.560;13.000;2022-11-20T10:44:17;24.92;;;16.58;;
54269;SDS011;40181;51.560;13.000;2022-11-20T10:47:01;23.63;;;17.67;;
54269;SDS011;40181;51.560;13.000;2022-11-20T10:49:32;22.23;;;16.00;;
54269;SDS011;40181;51.560;13.000;2022-11-20T10:52:08;20.38;;;15.20;;
54269;SDS011;40181;51.560;13.000;2022-11-20T10:54:47;25.65;;;18.90;;
54269;SDS011;40181;51.560;13.000;2022-11-20T10:57:27;20.52;;;17.10;;
54269;SDS011;40181;51.560;13.000;2022-11-20T11:00:13;18.83;;;14.95;;
54269;SDS011;40181;51.560;13.000;2022-11-20T11:02:43;24.42;;;18.88;;
54269;SDS011;40181;51.560;13.000;2022-11-20T11:05:23;18.92;;;15.75;;
54269;SDS011;40181;51.560;13.000;2022-11-20T11:08:05;21.00;;;15.65;;
54269;SDS011;40181;51.560;13.000;2022-11-20T11:10:42;29.45;;;20.13;;
54269;SDS011;40181;51.560;13.000;2022-11-20T11:13:21;26.92;;;19.05;;
54269;SDS011;40181;51.560;13.000;2022-11-20T11:15:52;23.58;;;18.05;;
54269;SDS011;40181;51.560;13.000;2022-11-20T11:18:25;21.88;;;16.70;;
54269;SDS011;40181;51.560;13.000;2022-11-20T11:20:57;20.08;;;16.60;;
54269;SDS011;40181;51.560;13.000;2022-11-20T11:23:33;17.52;;;15.38;;
54269;SDS011;40181;51.560;13.000;2022-11-20T11:26:06;17.33;;;13.30;;
54269;SDS011;40181;51.560;13.000;2022-11-20T11:28:52;20.15;;;13.35;;
54269;SDS011;40181;51.560;13.000;2022-11-20T11:31:24;12.63;;;9.77;;
54269;SDS011;40181;51.560;13.000;2022-11-20T11:34:03;20.30;;;14.30;;
54269;SDS011;40181;51.560;13.000;2022-11-20T11:36:38;27.58;;;17.88;;
54269;SDS011;40181;51.560;13.000;2022-11-20T11:39:12;18.55;;;13.23;;
54269;SDS011;40181;51.560;13.000;2022-11-20T11:41:46;15.50;;;12.55;;
54269;SDS011;40181;51.560;13.000;2022-11-20T11:44:17;18.65;;;13.38;;
54269;SDS011;40181;51.560;13.000;2022-11-20T11:47:02;19.20;;;14.15;;
54269;SDS011;40181;51.560;13.000;2022-11-20T11:49:37;21.85;;;14.50;;
54269;SDS011;40181;51.560;13.000;2022-11-20T11:52:08;20.10;;;15.50;;
54269;SDS011;40181;51.560;13.000;2022-11-20T11:54:45;22.10;;;14.27;;
54269;SDS011;40181;51.560;13.000;2022-11-20T11:57:23;22.38;;;15.50;;
54269;SDS011;40181;51.560;13.000;2022-11-20T12:00:02;22.48;;;17.42;;
54269;SDS011;40181;51.560;13.000;2022-11-20T12:02:37;17.60;;;13.68;;
54269;SDS011;40181;51.560;13.000;2022-11-20T12:05:21;16.70;;;14.18;;
54269;SDS011;40181;51.560;13.000;2022-11-20T12:07:56;16.58;;;13.38;;
54269;SDS011;40181;51.560;13.000;2022-11-20T12:10:37;14.00;;;11.52;;
54269;SDS011;40181;51.560;13.000;2022-11-20T12:13:17;18.60;;;14.32;;
54269;SDS011;40181;51.560;13.000;2022-11-20T12:15:59;18.98;;;12.45;;
54269;SDS011;40181;51.560;13.000;2022-11-20T12:18:29;18.20;;;13.77;;
54269;SDS011;40181;51.560;13.000;2022-11-20T12:21:04;19.25;;;15.15;;
54269;SDS011;40181;51.560;13.000;2022-11-20T12:23:52;19.20;;;13.32;;
54269;SDS011;40181;51.560;13.000;2022-11-20T12:26:48;18.53;;;14.70;;
54269;SDS011;40181;51.560;13.000;2022-11-20T12:29:32;12.48;;;10.32;;
54269;SDS011;40181;51.560;13.000;2022-11-20T12:32:23;12.25;;;10.20;;
54269;SDS011;40181;51.560;13.000;2022-11-20T12:38:40;12.13;;;8.77;;
54269;SDS011;40181;51.560;13.000;2022-11-20T12:41:31;9.77;;;7.80;;
54269;SDS011;40181;51.560;13.000;2022-11-20T12:47:43;9.88;;;7.72;;
54269;SDS011;40181;51.560;13.000;2022-11-20T12:50:42;9.23;;;7.97;;
54269;SDS011;40181;51.560;13.000;2022-11-20T12:53:22;9.88;;;8.23;;
54269;SDS011;40181;51.560;13.000;2022-11-20T12:56:03;13.73;;;10.73;;
54269;SDS011;40181;51.560;13.000;2022-11-20T12:58:51;13.82;;;10.00;;
54269;SDS011;40181;51.560;13.000;2022-11-20T13:01:36;24.60;;;14.73;;
54269;SDS011;40181;51.560;13.000;2022-11-20T13:04:19;24.00;;;15.90;;
54269;SDS011;40181;51.560;13.000;2022-11-20T13:07:07;12.38;;;10.05;;
54269;SDS011;40181;51.560;13.000;2022-11-20T13:09:42;18.90;;;12.05;;
54269;SDS011;40181;51.560;13.000;2022-11-20T13:12:14;13.50;;;11.48;;
54269;SDS011;40181;51.560;13.000;2022-11-20T13:14:52;14.13;;;11.10;;
54269;SDS011;40181;51.560;13.000;2022-11-20T13:17:30;14.13;;;9.32;;
54269;SDS011;40181;51.560;13.000;2022-11-20T13:20:09;9.27;;;8.32;;
54269;SDS011;40181;51.560;13.000;2022-11-20T13:22:44;12.43;;;7.55;;
54269;SDS011;40181;51.560;13.000;2022-11-20T13:25:22;14.10;;;11.20;;
54269;SDS011;40181;51.560;13.000;2022-11-20T13:27:53;12.18;;;8.65;;
54269;SDS011;40181;51.560;13.000;2022-11-20T13:30:26;8.75;;;7.57;;
54269;SDS011;40181;51.560;13.000;2022-11-20T13:32:58;8.55;;;7.35;;
54269;SDS011;40181;51.560;13.000;2022-11-20T13:35:35;9.65;;;6.50;;
54269;SDS011;40181;51.560;13.000;2022-11-20T13:38:08;11.73;;;8.38;;
54269;SDS011;40181;51.560;13.000;2022-11-20T13:40:50;10.68;;;8.55;;
54269;SDS011;40181;51.560;13.000;2022-11-20T13:43:22;12.35;;;9.45;;
54269;SDS011;40181;51.560;13.000;2022-11-20T13:46:03;8.07;;;7.07;;
54269;SDS011;40181;51.560;13.000;2022-11-20T13:48:38;8.65;;;7.32;;
54269;SDS011;40181;51.560;13.000;2022-11-20T13:51:12;11.00;;;9.05;;
54269;SDS011;40181;51.560;13.000;2022-11-20T13:57:07;11.52;;;7.40;;
54269;SDS011;40181;51.560;13.000;2022-11-20T14:00:07;11.15;;;8.88;;
54269;SDS011;40181;51.560;13.000;2022-11-20T14:02:46;13.75;;;8.75;;
54269;SDS011;40181;51.560;13.000;2022-11-20T14:05:39;11.75;;;8.65;;
54269;SDS011;40181;51.560;13.000;2022-11-20T14:08:20;8.45;;;6.95;;
54269;SDS011;40181;51.560;13.000;2022-11-20T14:11:05;9.00;;;7.30;;
54269;SDS011;40181;51.560;13.000;2022-11-20T14:13:55;11.80;;;9.27;;
54269;SDS011;40181;51.560;13.000;2022-11-20T14:16:28;8.32;;;6.82;;
54269;SDS011;40181;51.560;13.000;2022-11-20T14:22:07;9.90;;;8.45;;
54269;SDS011;40181;51.560;13.000;2022-11-20T14:24:42;10.90;;;8.82;;
54269;SDS011;40181;51.560;13.000;2022-11-20T14:27:12;10.15;;;8.25;;
54269;SDS011;40181;51.560;13.000;2022-11-20T14:29:44;9.45;;;7.72;;
54269;SDS011;40181;51.560;13.000;2022-11-20T14:32:15;11.65;;;8.48;;
54269;SDS011;40181;51.560;13.000;2022-11-20T14:34:50;11.25;;;6.57;;
54269;SDS011;40181;51.560;13.000;2022-11-20T14:37:20;11.93;;;9.25;;
54269;SDS011;40181;51.560;13.000;2022-11-20T14:39:53;8.70;;;7.53;;
54269;SDS011;40181;51.560;13.000;2022-11-20T14:42:24;13.05;;;7.93;;
54269;SDS011;40181;51.560;13.000;2022-11-20T14:44:56;9.25;;;7.05;;
54269;SDS011;40181;51.560;13.000;2022-11-20T14:47:27;6.28;;;5.63;;
54269;SDS011;40181;51.560;13.000;2022-11-20T14:50:02;5.93;;;5.32;;
54269;SDS011;40181;51.560;13.000;2022-11-20T14:52:35;8.85;;;7.03;;
54269;SDS011;40181;51.560;13.000;2022-11-20T14:55:05;8.38;;;7.35;;
54269;SDS011;40181;51.560;13.000;2022-11-20T14:57:41;9.93;;;7.38;;
54269;SDS011;40181;51.560;13.000;2022-11-20T15:00:18;8.82;;;7.60;;